sensor_id;sensor_type;location;lat;lon;timestamp;P1;durP1;ratioP1;P2;durP2;ratioP2
2129;SDS011;1071;52.544;13.374;2023-03-12T00:02:22;5.45;;;4.15;;
2129;SDS011;1071;52.544;13.374;2023-03-12T00:04:50;2.63;;;2.30;;
2129;SDS011;1071;52.544;13.374;2023-03-12T00:07:17;4.03;;;3.40;;
2129;SDS011;1071;52.544;13.374;2023-03-12T00:09:45;4.35;;;2.75;;
2129;SDS011;1071;52.544;13.374;2023-03-12T00:12:12;6.10;;;3.30;;
2129;SDS011;1071;52.544;13.374;2023-03-12T00:14:39;4.15;;;2.13;;
2129;SDS011;1071;52.544;13.374;2023-03-12T00:17:06;3.55;;;2.92;;
2129;SDS011;1071;52.544;13.374;2023-03-12T00:19:33;6.20;;;2.00;;
2129;SDS011;1071;52.544;13.374;2023-03-12T00:22:00;6.18;;;2.55;;
2129;SDS011;1071;52.544;13.374;2023-03-12T00:24:28;3.85;;;2.40;;
2129;SDS011;1071;52.544;13.374;2023-03-12T00:26:57;5.35;;;2.67;;
2129;SDS011;1071;52.544;13.374;2023-03-12T00:29:24;6.20;;;2.28;;
2129;SDS011;1071;52.544;13.374;2023-03-12T00:31:53;3.17;;;2.30;;
2129;SDS011;1071;52.544;13.374;2023-03-12T00:34:20;4.55;;;3.92;;
2129;SDS011;1071;52.544;13.374;2023-03-12T00:36:47;5.05;;;3.78;;
2129;SDS011;1071;52.544;13.374;2023-03-12T00:39:14;4.45;;;3.55;;
2129;SDS011;1071;52.544;13.374;2023-03-12T00:41:41;5.00;;;4.38;;
2129;SDS011;1071;52.544;13.374;2023-03-12T00:44:09;4.28;;;3.13;;
2129;SDS011;1071;52.544;13.374;2023-03-12T00:46:36;5.47;;;3.03;;
2129;SDS011;1071;52.544;13.374;2023-03-12T00:49:03;4.70;;;2.92;;
2129;SDS011;1071;52.544;13.374;2023-03-12T00:51:30;4.00;;;2.08;;
2129;SDS011;1071;52.544;13.374;2023-03-12T00:53:57;3.03;;;2.17;;
2129;SDS011;1071;52.544;13.374;2023-03-12T00:56:24;5.30;;;2.90;;
2129;SDS011;1071;52.544;13.374;2023-03-12T00:58:52;3.85;;;2.08;;
2129;SDS011;1071;52.544;13.374;2023-03-12T01:01:23;3.75;;;2.78;;
2129;SDS011;1071;52.544;13.374;2023-03-12T01:03:56;10.38;;;2.35;;
2129;SDS011;1071;52.544;13.374;2023-03-12T01:06:24;4.03;;;2.08;;
2129;SDS011;1071;52.544;13.374;2023-03-12T01:08:54;2.72;;;1.70;;
2129;SDS011;1071;52.544;13.374;2023-03-12T01:11:22;4.30;;;2.65;;
2129;SDS011;1071;52.544;13.374;2023-03-12T01:13:49;4.63;;;2.15;;
2129;SDS011;1071;52.544;13.374;2023-03-12T01:16:16;3.08;;;1.75;;
2129;SDS011;1071;52.544;13.374;2023-03-12T01:18:44;6.00;;;3.15;;
2129;SDS011;1071;52.544;13.374;2023-03-12T01:21:14;5.47;;;2.65;;
2129;SDS011;1071;52.544;13.374;2023-03-12T01:23:41;3.13;;;1.98;;
2129;SDS011;1071;52.544;13.374;2023-03-12T01:26:07;5.07;;;2.35;;
2129;SDS011;1071;52.544;13.374;2023-03-12T01:28:35;4.13;;;1.80;;
2129;SDS011;1071;52.544;13.374;2023-03-12T01:31:06;2.85;;;2.47;;
2129;SDS011;1071;52.544;13.374;2023-03-12T01:33:33;5.75;;;2.88;;
2129;SDS011;1071;52.544;13.374;2023-03-12T01:36:02;3.15;;;2.10;;
2129;SDS011;1071;52.544;13.374;2023-03-12T01:38:29;4.00;;;1.95;;
2129;SDS011;1071;52.544;13.374;2023-03-12T01:40:56;4.47;;;2.28;;
2129;SDS011;1071;52.544;13.374;2023-03-12T01:43:25;2.25;;;2.00;;
2129;SDS011;1071;52.544;13.374;2023-03-12T01:46:01;2.92;;;1.85;;
2129;SDS011;1071;52.544;13.374;2023-03-12T01:48:52;3.55;;;2.10;;
2129;SDS011;1071;52.544;13.374;2023-03-12T01:51:24;3.22;;;2.25;;
2129;SDS011;1071;52.544;13.374;2023-03-12T01:53:55;5.13;;;2.80;;
2129;SDS011;1071;52.544;13.374;2023-03-12T01:56:25;3.80;;;2.50;;
2129;SDS011;1071;52.544;13.374;2023-03-12T01:58:56;5.22;;;1.52;;
2129;SDS011;1071;52.544;13.374;2023-03-12T02:01:26;2.35;;;2.22;;
2129;SDS011;1071;52.544;13.374;2023-03-12T02:03:54;5.53;;;2.50;;
2129;SDS011;1071;52.544;13.374;2023-03-12T02:06:25;3.38;;;2.67;;
2129;SDS011;1071;52.544;13.374;2023-03-12T02:08:58;3.30;;;2.20;;
2129;SDS011;1071;52.544;13.374;2023-03-12T02:11:28;3.28;;;1.95;;
2129;SDS011;1071;52.544;13.374;2023-03-12T02:13:55;2.10;;;1.58;;
2129;SDS011;1071;52.544;13.374;2023-03-12T02:16:22;3.13;;;1.95;;
2129;SDS011;1071;52.544;13.374;2023-03-12T02:18:50;4.13;;;2.50;;
2129;SDS011;1071;52.544;13.374;2023-03-12T02:21:20;2.40;;;1.98;;
2129;SDS011;1071;52.544;13.374;2023-03-12T02:23:54;5.50;;;2.78;;
2129;SDS011;1071;52.544;13.374;2023-03-12T02:26:27;2.90;;;2.70;;
2129;SDS011;1071;52.544;13.374;2023-03-12T02:28:55;4.25;;;1.88;;
2129;SDS011;1071;52.544;13.374;2023-03-12T02:31:27;3.45;;;2.30;;
2129;SDS011;1071;52.544;13.374;2023-03-12T02:33:57;4.53;;;2.10;;
2129;SDS011;1071;52.544;13.374;2023-03-12T02:36:24;3.38;;;2.13;;
2129;SDS011;1071;52.544;13.374;2023-03-12T02:38:52;2.20;;;2.00;;
2129;SDS011;1071;52.544;13.374;2023-03-12T02:41:21;3.88;;;2.53;;
2129;SDS011;1071;52.544;13.374;2023-03-12T02:43:54;5.45;;;3.28;;
2129;SDS011;1071;52.544;13.374;2023-03-12T02:46:26;3.38;;;2.00;;
2129;SDS011;1071;52.544;13.374;2023-03-12T02:48:56;3.35;;;2.10;;
2129;SDS011;1071;52.544;13.374;2023-03-12T02:51:24;2.38;;;2.17;;
2129;SDS011;1071;52.544;13.374;2023-03-12T02:53:51;3.38;;;2.47;;
2129;SDS011;1071;52.544;13.374;2023-03-12T02:56:19;2.22;;;2.05;;
2129;SDS011;1071;52.544;13.374;2023-03-12T02:58:47;2.65;;;2.00;;
2129;SDS011;1071;52.544;13.374;2023-03-12T03:01:16;2.67;;;2.10;;
2129;SDS011;1071;52.544;13.374;2023-03-12T03:03:44;3.95;;;3.05;;
2129;SDS011;1071;52.544;13.374;2023-03-12T03:06:12;7.20;;;3.42;;
2129;SDS011;1071;52.544;13.374;2023-03-12T03:08:40;3.47;;;2.20;;
2129;SDS011;1071;52.544;13.374;2023-03-12T03:11:07;3.42;;;2.20;;
2129;SDS011;1071;52.544;13.374;2023-03-12T03:13:35;3.10;;;2.15;;
2129;SDS011;1071;52.544;13.374;2023-03-12T03:16:02;3.65;;;2.45;;
2129;SDS011;1071;52.544;13.374;2023-03-12T03:18:31;2.30;;;2.10;;
2129;SDS011;1071;52.544;13.374;2023-03-12T03:21:00;3.00;;;2.17;;
2129;SDS011;1071;52.544;13.374;2023-03-12T03:23:28;5.70;;;2.70;;
2129;SDS011;1071;52.544;13.374;2023-03-12T03:25:55;4.10;;;2.65;;
2129;SDS011;1071;52.544;13.374;2023-03-12T03:28:24;2.38;;;2.17;;
2129;SDS011;1071;52.544;13.374;2023-03-12T03:30:53;4.07;;;2.40;;
2129;SDS011;1071;52.544;13.374;2023-03-12T03:33:22;5.13;;;2.25;;
2129;SDS011;1071;52.544;13.374;2023-03-12T03:35:51;7.97;;;2.78;;
2129;SDS011;1071;52.544;13.374;2023-03-12T03:38:19;3.55;;;2.45;;
2129;SDS011;1071;52.544;13.374;2023-03-12T03:40:46;2.72;;;2.35;;
2129;SDS011;1071;52.544;13.374;2023-03-12T03:43:13;3.33;;;2.35;;
2129;SDS011;1071;52.544;13.374;2023-03-12T03:45:40;3.15;;;2.78;;
2129;SDS011;1071;52.544;13.374;2023-03-12T03:48:09;3.22;;;2.80;;
2129;SDS011;1071;52.544;13.374;2023-03-12T03:50:36;3.28;;;2.65;;
2129;SDS011;1071;52.544;13.374;2023-03-12T03:53:05;4.32;;;2.70;;
2129;SDS011;1071;52.544;13.374;2023-03-12T03:55:34;2.72;;;2.30;;
2129;SDS011;1071;52.544;13.374;2023-03-12T03:58:02;3.28;;;2.72;;
2129;SDS011;1071;52.544;13.374;2023-03-12T04:00:29;4.93;;;2.33;;
2129;SDS011;1071;52.544;13.374;2023-03-12T04:02:56;2.50;;;2.30;;
2129;SDS011;1071;52.544;13.374;2023-03-12T04:05:23;3.53;;;2.10;;
2129;SDS011;1071;52.544;13.374;2023-03-12T04:07:50;2.15;;;1.90;;
2129;SDS011;1071;52.544;13.374;2023-03-12T04:10:20;3.85;;;2.15;;
2129;SDS011;1071;52.544;13.374;2023-03-12T04:12:48;2.35;;;1.90;;
2129;SDS011;1071;52.544;13.374;2023-03-12T04:15:15;2.67;;;2.50;;
2129;SDS011;1071;52.544;13.374;2023-03-12T04:17:42;2.78;;;2.25;;
2129;SDS011;1071;52.544;13.374;2023-03-12T04:20:10;2.03;;;1.85;;
2129;SDS011;1071;52.544;13.374;2023-03-12T04:22:37;3.78;;;2.55;;
2129;SDS011;1071;52.544;13.374;2023-03-12T04:25:05;2.80;;;2.53;;
2129;SDS011;1071;52.544;13.374;2023-03-12T04:27:34;3.78;;;3.33;;
2129;SDS011;1071;52.544;13.374;2023-03-12T04:30:01;3.05;;;2.85;;
2129;SDS011;1071;52.544;13.374;2023-03-12T04:32:29;3.60;;;2.78;;
2129;SDS011;1071;52.544;13.374;2023-03-12T04:34:56;3.72;;;3.08;;
2129;SDS011;1071;52.544;13.374;2023-03-12T04:37:23;3.90;;;3.50;;
2129;SDS011;1071;52.544;13.374;2023-03-12T04:39:50;11.73;;;4.05;;
2129;SDS011;1071;52.544;13.374;2023-03-12T04:42:17;4.80;;;3.15;;
2129;SDS011;1071;52.544;13.374;2023-03-12T04:44:45;4.45;;;3.38;;
2129;SDS011;1071;52.544;13.374;2023-03-12T04:47:13;4.15;;;3.40;;
2129;SDS011;1071;52.544;13.374;2023-03-12T04:49:40;4.03;;;3.40;;
2129;SDS011;1071;52.544;13.374;2023-03-12T04:52:07;5.57;;;4.90;;
2129;SDS011;1071;52.544;13.374;2023-03-12T04:54:34;5.40;;;4.10;;
2129;SDS011;1071;52.544;13.374;2023-03-12T04:57:01;6.07;;;4.28;;
2129;SDS011;1071;52.544;13.374;2023-03-12T04:59:28;6.35;;;3.78;;
2129;SDS011;1071;52.544;13.374;2023-03-12T05:01:57;3.45;;;3.15;;
2129;SDS011;1071;52.544;13.374;2023-03-12T05:04:23;4.68;;;3.33;;
2129;SDS011;1071;52.544;13.374;2023-03-12T05:06:51;5.47;;;4.07;;
2129;SDS011;1071;52.544;13.374;2023-03-12T05:09:17;5.25;;;4.03;;
2129;SDS011;1071;52.544;13.374;2023-03-12T05:11:45;3.80;;;3.40;;
2129;SDS011;1071;52.544;13.374;2023-03-12T05:14:12;4.35;;;3.90;;
2129;SDS011;1071;52.544;13.374;2023-03-12T05:16:39;5.43;;;4.10;;
2129;SDS011;1071;52.544;13.374;2023-03-12T05:19:07;7.22;;;3.90;;
2129;SDS011;1071;52.544;13.374;2023-03-12T05:21:35;4.40;;;4.00;;
2129;SDS011;1071;52.544;13.374;2023-03-12T05:24:02;4.00;;;3.70;;
2129;SDS011;1071;52.544;13.374;2023-03-12T05:26:30;3.88;;;3.50;;
2129;SDS011;1071;52.544;13.374;2023-03-12T05:28:58;4.30;;;3.40;;
2129;SDS011;1071;52.544;13.374;2023-03-12T05:31:27;6.30;;;4.10;;
2129;SDS011;1071;52.544;13.374;2023-03-12T05:33:57;5.68;;;3.83;;
2129;SDS011;1071;52.544;13.374;2023-03-12T05:36:25;6.30;;;4.80;;
2129;SDS011;1071;52.544;13.374;2023-03-12T05:38:53;7.07;;;4.97;;
2129;SDS011;1071;52.544;13.374;2023-03-12T05:41:22;6.55;;;3.65;;
2129;SDS011;1071;52.544;13.374;2023-03-12T05:43:50;6.07;;;4.07;;
2129;SDS011;1071;52.544;13.374;2023-03-12T05:46:20;4.85;;;3.85;;
2129;SDS011;1071;52.544;13.374;2023-03-12T05:48:48;5.18;;;4.18;;
2129;SDS011;1071;52.544;13.374;2023-03-12T05:51:15;6.95;;;5.35;;
2129;SDS011;1071;52.544;13.374;2023-03-12T05:53:43;5.03;;;4.13;;
2129;SDS011;1071;52.544;13.374;2023-03-12T05:56:11;4.55;;;4.15;;
2129;SDS011;1071;52.544;13.374;2023-03-12T05:58:40;4.15;;;3.58;;
2129;SDS011;1071;52.544;13.374;2023-03-12T06:01:10;4.47;;;3.80;;
2129;SDS011;1071;52.544;13.374;2023-03-12T06:03:46;3.92;;;3.58;;
2129;SDS011;1071;52.544;13.374;2023-03-12T06:06:14;6.40;;;3.40;;
2129;SDS011;1071;52.544;13.374;2023-03-12T06:08:42;6.75;;;3.38;;
2129;SDS011;1071;52.544;13.374;2023-03-12T06:11:10;4.80;;;3.13;;
2129;SDS011;1071;52.544;13.374;2023-03-12T06:13:38;4.55;;;2.70;;
2129;SDS011;1071;52.544;13.374;2023-03-12T06:16:05;2.92;;;2.72;;
2129;SDS011;1071;52.544;13.374;2023-03-12T06:18:34;4.25;;;3.42;;
2129;SDS011;1071;52.544;13.374;2023-03-12T06:21:08;3.85;;;3.20;;
2129;SDS011;1071;52.544;13.374;2023-03-12T06:23:37;6.47;;;3.30;;
2129;SDS011;1071;52.544;13.374;2023-03-12T06:26:06;2.97;;;2.78;;
2129;SDS011;1071;52.544;13.374;2023-03-12T06:28:34;3.95;;;2.97;;
2129;SDS011;1071;52.544;13.374;2023-03-12T06:31:02;4.90;;;2.90;;
2129;SDS011;1071;52.544;13.374;2023-03-12T06:33:32;2.70;;;2.40;;
2129;SDS011;1071;52.544;13.374;2023-03-12T06:36:00;4.65;;;3.70;;
2129;SDS011;1071;52.544;13.374;2023-03-12T06:38:29;4.50;;;3.28;;
2129;SDS011;1071;52.544;13.374;2023-03-12T06:40:57;3.60;;;3.30;;
2129;SDS011;1071;52.544;13.374;2023-03-12T06:43:27;3.30;;;2.92;;
2129;SDS011;1071;52.544;13.374;2023-03-12T06:45:56;4.13;;;2.95;;
2129;SDS011;1071;52.544;13.374;2023-03-12T06:48:24;5.13;;;3.10;;
2129;SDS011;1071;52.544;13.374;2023-03-12T06:50:52;4.00;;;3.28;;
2129;SDS011;1071;52.544;13.374;2023-03-12T06:53:19;3.67;;;3.38;;
2129;SDS011;1071;52.544;13.374;2023-03-12T06:55:48;5.20;;;3.92;;
2129;SDS011;1071;52.544;13.374;2023-03-12T06:58:16;3.78;;;3.38;;
2129;SDS011;1071;52.544;13.374;2023-03-12T07:00:45;3.85;;;3.42;;
2129;SDS011;1071;52.544;13.374;2023-03-12T07:03:12;5.00;;;4.22;;
2129;SDS011;1071;52.544;13.374;2023-03-12T07:05:42;3.40;;;3.10;;
2129;SDS011;1071;52.544;13.374;2023-03-12T07:08:10;4.55;;;3.15;;
2129;SDS011;1071;52.544;13.374;2023-03-12T07:10:37;4.72;;;3.00;;
2129;SDS011;1071;52.544;13.374;2023-03-12T07:13:07;2.72;;;2.53;;
2129;SDS011;1071;52.544;13.374;2023-03-12T07:15:34;5.95;;;3.58;;
2129;SDS011;1071;52.544;13.374;2023-03-12T07:18:04;4.13;;;3.80;;
2129;SDS011;1071;52.544;13.374;2023-03-12T07:20:32;4.35;;;3.30;;
2129;SDS011;1071;52.544;13.374;2023-03-12T07:23:02;4.93;;;3.17;;
2129;SDS011;1071;52.544;13.374;2023-03-12T07:25:33;5.60;;;3.88;;
2129;SDS011;1071;52.544;13.374;2023-03-12T07:28:05;7.55;;;3.22;;
2129;SDS011;1071;52.544;13.374;2023-03-12T07:30:38;5.00;;;3.30;;
2129;SDS011;1071;52.544;13.374;2023-03-12T07:33:07;5.65;;;3.75;;
2129;SDS011;1071;52.544;13.374;2023-03-12T07:35:36;6.70;;;3.55;;
2129;SDS011;1071;52.544;13.374;2023-03-12T07:38:04;4.10;;;3.70;;
2129;SDS011;1071;52.544;13.374;2023-03-12T07:40:32;3.50;;;3.20;;
2129;SDS011;1071;52.544;13.374;2023-03-12T07:43:00;8.20;;;3.78;;
2129;SDS011;1071;52.544;13.374;2023-03-12T07:45:27;5.88;;;3.30;;
2129;SDS011;1071;52.544;13.374;2023-03-12T07:47:54;6.32;;;3.80;;
2129;SDS011;1071;52.544;13.374;2023-03-12T07:50:22;5.15;;;3.35;;
2129;SDS011;1071;52.544;13.374;2023-03-12T07:52:49;5.65;;;3.75;;
2129;SDS011;1071;52.544;13.374;2023-03-12T07:55:16;4.40;;;3.83;;
2129;SDS011;1071;52.544;13.374;2023-03-12T07:57:43;3.30;;;3.10;;
2129;SDS011;1071;52.544;13.374;2023-03-12T08:00:11;3.92;;;3.03;;
2129;SDS011;1071;52.544;13.374;2023-03-12T08:02:45;5.78;;;3.95;;
2129;SDS011;1071;52.544;13.374;2023-03-12T08:05:12;6.65;;;3.78;;
2129;SDS011;1071;52.544;13.374;2023-03-12T08:07:40;6.30;;;3.85;;
2129;SDS011;1071;52.544;13.374;2023-03-12T08:10:08;4.07;;;3.50;;
2129;SDS011;1071;52.544;13.374;2023-03-12T08:12:37;5.00;;;3.90;;
2129;SDS011;1071;52.544;13.374;2023-03-12T08:15:04;4.50;;;3.83;;
2129;SDS011;1071;52.544;13.374;2023-03-12T08:17:32;8.60;;;4.43;;
2129;SDS011;1071;52.544;13.374;2023-03-12T08:20:02;5.03;;;3.83;;
2129;SDS011;1071;52.544;13.374;2023-03-12T08:22:29;3.92;;;3.58;;
2129;SDS011;1071;52.544;13.374;2023-03-12T08:24:58;5.32;;;3.75;;
2129;SDS011;1071;52.544;13.374;2023-03-12T08:27:25;4.75;;;3.78;;
2129;SDS011;1071;52.544;13.374;2023-03-12T08:29:52;4.57;;;3.88;;
2129;SDS011;1071;52.544;13.374;2023-03-12T08:32:19;5.88;;;3.58;;
2129;SDS011;1071;52.544;13.374;2023-03-12T08:34:46;4.35;;;3.45;;
2129;SDS011;1071;52.544;13.374;2023-03-12T08:37:14;4.20;;;3.80;;
2129;SDS011;1071;52.544;13.374;2023-03-12T08:39:41;4.05;;;3.40;;
2129;SDS011;1071;52.544;13.374;2023-03-12T08:42:10;3.45;;;3.22;;
2129;SDS011;1071;52.544;13.374;2023-03-12T08:44:37;3.38;;;3.05;;
2129;SDS011;1071;52.544;13.374;2023-03-12T08:47:04;2.75;;;2.55;;
2129;SDS011;1071;52.544;13.374;2023-03-12T08:49:32;5.20;;;2.80;;
2129;SDS011;1071;52.544;13.374;2023-03-12T08:51:59;6.70;;;3.63;;
2129;SDS011;1071;52.544;13.374;2023-03-12T08:54:26;4.47;;;3.03;;
2129;SDS011;1071;52.544;13.374;2023-03-12T08:56:53;4.38;;;2.40;;
2129;SDS011;1071;52.544;13.374;2023-03-12T08:59:22;4.03;;;3.05;;
2129;SDS011;1071;52.544;13.374;2023-03-12T09:01:49;7.00;;;2.38;;
2129;SDS011;1071;52.544;13.374;2023-03-12T09:04:17;4.13;;;2.33;;
2129;SDS011;1071;52.544;13.374;2023-03-12T09:06:47;2.33;;;2.13;;
2129;SDS011;1071;52.544;13.374;2023-03-12T09:09:17;6.15;;;2.50;;
2129;SDS011;1071;52.544;13.374;2023-03-12T09:11:44;5.22;;;2.72;;
2129;SDS011;1071;52.544;13.374;2023-03-12T09:14:11;2.97;;;2.60;;
2129;SDS011;1071;52.544;13.374;2023-03-12T09:16:43;2.22;;;2.03;;
2129;SDS011;1071;52.544;13.374;2023-03-12T09:19:10;2.15;;;1.80;;
2129;SDS011;1071;52.544;13.374;2023-03-12T09:21:37;3.25;;;2.60;;
2129;SDS011;1071;52.544;13.374;2023-03-12T09:24:05;4.47;;;1.95;;
2129;SDS011;1071;52.544;13.374;2023-03-12T09:26:33;6.15;;;1.83;;
2129;SDS011;1071;52.544;13.374;2023-03-12T09:29:00;2.50;;;1.77;;
2129;SDS011;1071;52.544;13.374;2023-03-12T09:31:27;2.67;;;1.63;;
2129;SDS011;1071;52.544;13.374;2023-03-12T09:33:55;2.15;;;1.88;;
2129;SDS011;1071;52.544;13.374;2023-03-12T09:36:23;3.88;;;2.00;;
2129;SDS011;1071;52.544;13.374;2023-03-12T09:38:50;1.63;;;1.50;;
2129;SDS011;1071;52.544;13.374;2023-03-12T09:41:18;4.43;;;2.00;;
2129;SDS011;1071;52.544;13.374;2023-03-12T09:43:48;1.67;;;1.58;;
2129;SDS011;1071;52.544;13.374;2023-03-12T09:46:21;4.35;;;1.67;;
2129;SDS011;1071;52.544;13.374;2023-03-12T09:48:52;2.20;;;2.00;;
2129;SDS011;1071;52.544;13.374;2023-03-12T09:51:26;2.47;;;1.63;;
2129;SDS011;1071;52.544;13.374;2023-03-12T09:53:59;5.75;;;3.50;;
2129;SDS011;1071;52.544;13.374;2023-03-12T09:56:29;5.60;;;2.47;;
2129;SDS011;1071;52.544;13.374;2023-03-12T09:58:56;4.95;;;2.78;;
2129;SDS011;1071;52.544;13.374;2023-03-12T10:01:26;2.97;;;2.78;;
2129;SDS011;1071;52.544;13.374;2023-03-12T10:04:06;2.40;;;1.67;;
2129;SDS011;1071;52.544;13.374;2023-03-12T10:06:46;3.75;;;1.67;;
2129;SDS011;1071;52.544;13.374;2023-03-12T10:09:25;2.00;;;1.80;;
2129;SDS011;1071;52.544;13.374;2023-03-12T10:12:01;2.38;;;1.42;;
2129;SDS011;1071;52.544;13.374;2023-03-12T10:14:38;3.00;;;1.98;;
2129;SDS011;1071;52.544;13.374;2023-03-12T10:17:22;2.70;;;1.50;;
2129;SDS011;1071;52.544;13.374;2023-03-12T10:23:03;7.32;;;2.85;;
2129;SDS011;1071;52.544;13.374;2023-03-12T10:25:35;4.63;;;1.45;;
2129;SDS011;1071;52.544;13.374;2023-03-12T10:28:10;2.75;;;1.70;;
2129;SDS011;1071;52.544;13.374;2023-03-12T10:30:42;2.35;;;1.83;;
2129;SDS011;1071;52.544;13.374;2023-03-12T10:33:16;3.03;;;2.03;;
2129;SDS011;1071;52.544;13.374;2023-03-12T10:35:46;3.63;;;2.85;;
2129;SDS011;1071;52.544;13.374;2023-03-12T10:38:14;1.90;;;1.80;;
2129;SDS011;1071;52.544;13.374;2023-03-12T10:40:45;3.70;;;2.53;;
2129;SDS011;1071;52.544;13.374;2023-03-12T10:43:13;3.78;;;2.80;;
2129;SDS011;1071;52.544;13.374;2023-03-12T10:45:42;1.75;;;1.65;;
2129;SDS011;1071;52.544;13.374;2023-03-12T10:48:17;5.28;;;2.45;;
2129;SDS011;1071;52.544;13.374;2023-03-12T10:50:59;5.63;;;2.30;;
2129;SDS011;1071;52.544;13.374;2023-03-12T10:53:28;5.38;;;2.05;;
2129;SDS011;1071;52.544;13.374;2023-03-12T10:55:58;4.85;;;3.60;;
2129;SDS011;1071;52.544;13.374;2023-03-12T10:58:30;3.92;;;3.25;;
2129;SDS011;1071;52.544;13.374;2023-03-12T11:00:59;3.78;;;2.75;;
2129;SDS011;1071;52.544;13.374;2023-03-12T11:03:27;3.58;;;2.67;;
2129;SDS011;1071;52.544;13.374;2023-03-12T11:05:57;3.88;;;2.20;;
2129;SDS011;1071;52.544;13.374;2023-03-12T11:08:27;2.00;;;1.70;;
2129;SDS011;1071;52.544;13.374;2023-03-12T11:10:55;5.15;;;2.00;;
2129;SDS011;1071;52.544;13.374;2023-03-12T11:13:28;2.00;;;1.80;;
2129;SDS011;1071;52.544;13.374;2023-03-12T11:16:00;2.72;;;1.60;;
2129;SDS011;1071;52.544;13.374;2023-03-12T11:18:47;2.30;;;1.70;;
2129;SDS011;1071;52.544;13.374;2023-03-12T11:21:25;3.05;;;2.00;;
2129;SDS011;1071;52.544;13.374;2023-03-12T11:24:03;2.30;;;1.77;;
2129;SDS011;1071;52.544;13.374;2023-03-12T11:26:34;5.82;;;2.10;;
2129;SDS011;1071;52.544;13.374;2023-03-12T11:29:11;2.50;;;2.13;;
2129;SDS011;1071;52.544;13.374;2023-03-12T11:31:44;2.65;;;2.45;;
2129;SDS011;1071;52.544;13.374;2023-03-12T11:34:21;3.78;;;2.53;;
2129;SDS011;1071;52.544;13.374;2023-03-12T11:36:56;2.88;;;2.13;;
2129;SDS011;1071;52.544;13.374;2023-03-12T11:39:32;4.93;;;2.30;;
2129;SDS011;1071;52.544;13.374;2023-03-12T11:42:15;3.17;;;1.60;;
2129;SDS011;1071;52.544;13.374;2023-03-12T11:44:55;5.70;;;2.55;;
2129;SDS011;1071;52.544;13.374;2023-03-12T11:47:48;2.08;;;1.65;;
2129;SDS011;1071;52.544;13.374;2023-03-12T11:50:26;3.55;;;1.90;;
2129;SDS011;1071;52.544;13.374;2023-03-12T11:53:04;2.55;;;1.95;;
2129;SDS011;1071;52.544;13.374;2023-03-12T11:58:40;3.15;;;2.72;;
2129;SDS011;1071;52.544;13.374;2023-03-12T12:01:24;6.07;;;5.47;;
2129;SDS011;1071;52.544;13.374;2023-03-12T12:07:14;4.85;;;3.42;;
2129;SDS011;1071;52.544;13.374;2023-03-12T12:10:01;2.58;;;2.38;;
2129;SDS011;1071;52.544;13.374;2023-03-12T12:12:37;3.45;;;2.10;;
2129;SDS011;1071;52.544;13.374;2023-03-12T12:15:18;4.88;;;3.10;;
2129;SDS011;1071;52.544;13.374;2023-03-12T12:17:58;4.50;;;2.35;;
2129;SDS011;1071;52.544;13.374;2023-03-12T12:20:36;5.47;;;3.13;;
2129;SDS011;1071;52.544;13.374;2023-03-12T12:23:16;2.22;;;2.00;;
2129;SDS011;1071;52.544;13.374;2023-03-12T12:25:55;2.45;;;1.98;;
2129;SDS011;1071;52.544;13.374;2023-03-12T12:28:48;2.63;;;2.40;;
2129;SDS011;1071;52.544;13.374;2023-03-12T12:31:28;2.35;;;2.15;;
2129;SDS011;1071;52.544;13.374;2023-03-12T12:34:13;6.93;;;2.60;;
2129;SDS011;1071;52.544;13.374;2023-03-12T12:36:52;4.72;;;2.35;;
2129;SDS011;1071;52.544;13.374;2023-03-12T12:39:27;3.33;;;2.78;;
2129;SDS011;1071;52.544;13.374;2023-03-12T12:42:01;5.30;;;2.30;;
2129;SDS011;1071;52.544;13.374;2023-03-12T12:44:33;2.50;;;2.25;;
2129;SDS011;1071;52.544;13.374;2023-03-12T12:47:04;2.47;;;2.20;;
2129;SDS011;1071;52.544;13.374;2023-03-12T12:49:38;3.63;;;2.22;;
2129;SDS011;1071;52.544;13.374;2023-03-12T12:52:10;3.00;;;2.15;;
2129;SDS011;1071;52.544;13.374;2023-03-12T12:54:41;2.60;;;2.30;;
2129;SDS011;1071;52.544;13.374;2023-03-12T12:57:19;2.47;;;2.28;;
2129;SDS011;1071;52.544;13.374;2023-03-12T12:59:55;1.80;;;1.70;;
2129;SDS011;1071;52.544;13.374;2023-03-12T13:02:39;3.30;;;2.42;;
2129;SDS011;1071;52.544;13.374;2023-03-12T13:08:06;4.80;;;3.60;;
2129;SDS011;1071;52.544;13.374;2023-03-12T13:10:37;5.32;;;3.22;;
2129;SDS011;1071;52.544;13.374;2023-03-12T13:13:11;3.22;;;2.60;;
2129;SDS011;1071;52.544;13.374;2023-03-12T13:15:44;7.03;;;4.70;;
2129;SDS011;1071;52.544;13.374;2023-03-12T13:18:17;7.72;;;4.05;;
2129;SDS011;1071;52.544;13.374;2023-03-12T13:23:54;2.60;;;2.25;;
2129;SDS011;1071;52.544;13.374;2023-03-12T13:26:29;3.00;;;1.83;;
2129;SDS011;1071;52.544;13.374;2023-03-12T13:29:16;5.13;;;2.25;;
2129;SDS011;1071;52.544;13.374;2023-03-12T13:31:47;2.53;;;2.25;;
2129;SDS011;1071;52.544;13.374;2023-03-12T13:40:51;2.88;;;2.67;;
2129;SDS011;1071;52.544;13.374;2023-03-12T13:43:39;2.92;;;2.60;;
2129;SDS011;1071;52.544;13.374;2023-03-12T13:46:28;3.72;;;2.60;;
2129;SDS011;1071;52.544;13.374;2023-03-12T13:49:04;2.42;;;1.88;;
2129;SDS011;1071;52.544;13.374;2023-03-12T13:51:41;3.92;;;2.70;;
2129;SDS011;1071;52.544;13.374;2023-03-12T13:54:19;3.45;;;3.13;;
2129;SDS011;1071;52.544;13.374;2023-03-12T13:56:56;5.72;;;3.00;;
2129;SDS011;1071;52.544;13.374;2023-03-12T13:59:25;2.00;;;1.90;;
2129;SDS011;1071;52.544;13.374;2023-03-12T14:01:56;5.82;;;3.95;;
2129;SDS011;1071;52.544;13.374;2023-03-12T14:04:29;4.30;;;3.58;;
2129;SDS011;1071;52.544;13.374;2023-03-12T14:07:08;3.78;;;3.42;;
2129;SDS011;1071;52.544;13.374;2023-03-12T14:10:02;2.08;;;1.98;;
2129;SDS011;1071;52.544;13.374;2023-03-12T14:12:39;2.85;;;1.52;;
2129;SDS011;1071;52.544;13.374;2023-03-12T14:15:14;5.20;;;1.90;;
2129;SDS011;1071;52.544;13.374;2023-03-12T14:18:00;3.58;;;1.80;;
2129;SDS011;1071;52.544;13.374;2023-03-12T14:20:36;1.80;;;1.70;;
2129;SDS011;1071;52.544;13.374;2023-03-12T14:23:06;2.33;;;1.90;;
2129;SDS011;1071;52.544;13.374;2023-03-12T14:25:38;5.82;;;2.00;;
2129;SDS011;1071;52.544;13.374;2023-03-12T14:28:10;1.95;;;1.63;;
2129;SDS011;1071;52.544;13.374;2023-03-12T14:30:40;2.70;;;1.80;;
2129;SDS011;1071;52.544;13.374;2023-03-12T14:33:15;2.20;;;2.00;;
2129;SDS011;1071;52.544;13.374;2023-03-12T14:35:47;4.75;;;2.17;;
2129;SDS011;1071;52.544;13.374;2023-03-12T14:38:20;4.65;;;1.70;;
2129;SDS011;1071;52.544;13.374;2023-03-12T14:40:54;2.13;;;1.77;;
2129;SDS011;1071;52.544;13.374;2023-03-12T14:43:25;2.72;;;1.23;;
2129;SDS011;1071;52.544;13.374;2023-03-12T14:45:58;1.65;;;1.40;;
2129;SDS011;1071;52.544;13.374;2023-03-12T14:48:29;2.25;;;1.40;;
2129;SDS011;1071;52.544;13.374;2023-03-12T14:50:58;4.30;;;1.70;;
2129;SDS011;1071;52.544;13.374;2023-03-12T14:53:27;4.93;;;2.58;;
2129;SDS011;1071;52.544;13.374;2023-03-12T14:55:59;3.15;;;1.85;;
2129;SDS011;1071;52.544;13.374;2023-03-12T14:58:27;2.75;;;1.40;;
2129;SDS011;1071;52.544;13.374;2023-03-12T15:00:56;2.58;;;1.73;;
2129;SDS011;1071;52.544;13.374;2023-03-12T15:03:26;2.67;;;1.17;;
2129;SDS011;1071;52.544;13.374;2023-03-12T15:05:56;3.13;;;1.30;;
2129;SDS011;1071;52.544;13.374;2023-03-12T15:08:24;3.17;;;2.10;;
2129;SDS011;1071;52.544;13.374;2023-03-12T15:10:52;2.75;;;2.13;;
2129;SDS011;1071;52.544;13.374;2023-03-12T15:13:21;1.90;;;1.30;;
2129;SDS011;1071;52.544;13.374;2023-03-12T15:15:50;2.10;;;1.50;;
2129;SDS011;1071;52.544;13.374;2023-03-12T15:18:20;1.75;;;1.55;;
2129;SDS011;1071;52.544;13.374;2023-03-12T15:20:52;3.58;;;2.60;;
2129;SDS011;1071;52.544;13.374;2023-03-12T15:23:31;13.40;;;8.10;;
2129;SDS011;1071;52.544;13.374;2023-03-12T15:26:10;7.40;;;5.82;;
2129;SDS011;1071;52.544;13.374;2023-03-12T15:28:39;3.53;;;2.58;;
2129;SDS011;1071;52.544;13.374;2023-03-12T15:31:08;2.92;;;1.70;;
2129;SDS011;1071;52.544;13.374;2023-03-12T15:33:38;4.15;;;2.03;;
2129;SDS011;1071;52.544;13.374;2023-03-12T15:36:17;2.70;;;1.95;;
2129;SDS011;1071;52.544;13.374;2023-03-12T15:38:51;5.88;;;2.13;;
2129;SDS011;1071;52.544;13.374;2023-03-12T15:41:20;5.63;;;2.65;;
2129;SDS011;1071;52.544;13.374;2023-03-12T15:43:50;5.30;;;4.13;;